Main page
METAR-TAF:

METAR-TAF

Airports :

Hannover Airport

Hanover, Germany

latitude: 52-28N, longitude: 009-41E, elevation: 56 m

Current weather observation

The report was made 32 minutes ago, at 11:50 UTC
Wind 5 kt from the South/Southeast, varying between East and Southwest
Temperature 30°C
Humidity 27%
Pressure 1020 hPa
Visibility 10 km or more
no clouds below 1500 m and no cumulonimbus

METAR: EDDV 061150Z 16005KT 080V230 CAVOK 30/09 Q1020 NOSIG

Time: 14:22 (12:22 UTC)

Forecast

The report was made 1 hour and 22 minutes ago, at 11:00 UTC
Forecast valid from 06 at 12 UTC to 07 at 12 UTC
Wind 5 kt from the South
Visibility 10 km or more
no clouds below 1500 m and no cumulonimbus
Becoming
from 06 at 15 UTC to 06 at 17 UTC
Wind 3 kt from variable directions
Becoming
from 07 at 05 UTC to 07 at 07 UTC
Wind 6 kt from the East

TAF: EDDV 061100Z 0612/0712 17005KT CAVOK BECMG 0615/0617 VRB03KT BECMG 0705/0707 10006KT

Weather observations and forecasts of more than 4000 airports (METAR and TAF reports).

The available stations are represented by yellow and red dots on the map.

Hover mouse over dot to see the name of the station.

Then click to see weather observations and forecasts.

To change the map : click on the green buttons with a black cross to zoom in, on the green button with a dash to zoom out, or on the green arrows for adjacent maps.


METAR-TAF: